Time;durP1;ratioP1;P1;durP2;ratioP2;P2;SDS_P1;SDS_P2;PMS_P1;PMS_P2;Temp;Humidity;BMP_temperature;BMP_pressure;BME280_temperature;BME280_humidity;BME280_pressure;Samples;Min_cycle;Max_cycle;Signal;HPM_P1;HPM_P2
2021/05/25 00:02:09;;;;;;;5.05;1.98;;;12.50;81.10;;;;;;5025745;28;20316;-76
2021/05/25 00:04:35;;;;;;;4.70;1.60;;;12.40;81.20;;;;;;5035026;28;20009;-75
2021/05/25 00:07:00;;;;;;;2.53;1.40;;;12.50;81.40;;;;;;5062849;28;20017;-76
2021/05/25 00:09:26;;;;;;;6.82;2.05;;;12.30;81.70;;;;;;5061972;28;20010;-76
2021/05/25 00:11:52;;;;;;;4.75;1.40;;;12.30;82.00;;;;;;5063461;28;20020;-75
2021/05/25 00:14:20;;;;;;;6.07;2.00;;;12.30;82.20;;;;;;5063882;28;20457;-76
2021/05/25 00:16:47;;;;;;;4.85;2.13;;;12.30;82.40;;;;;;5043923;28;20021;-76
2021/05/25 00:19:12;;;;;;;4.80;1.70;;;12.20;82.80;;;;;;5045089;28;20053;-76
2021/05/25 00:21:38;;;;;;;4.15;1.75;;;12.20;83.00;;;;;;5061409;28;20024;-76
2021/05/25 00:24:04;;;;;;;4.38;1.65;;;12.10;83.20;;;;;;5061705;28;20006;-76
2021/05/25 00:26:30;;;;;;;2.88;1.52;;;12.10;83.60;;;;;;5061298;28;20315;-76
2021/05/25 00:28:55;;;;;;;6.70;1.98;;;12.10;83.80;;;;;;5060594;28;20013;-77
2021/05/25 00:31:21;;;;;;;3.70;1.45;;;12.00;84.20;;;;;;5008444;28;20101;-76
2021/05/25 00:33:46;;;;;;;4.03;1.50;;;11.90;84.50;;;;;;5008912;28;20029;-76
2021/05/25 00:36:12;;;;;;;6.20;1.48;;;11.90;84.60;;;;;;5025282;28;20035;-76
2021/05/25 00:38:38;;;;;;;6.43;1.70;;;11.90;84.70;;;;;;5027227;28;20211;-76
2021/05/25 00:41:04;;;;;;;3.58;1.38;;;11.90;85.10;;;;;;5011669;28;20016;-76
2021/05/25 00:43:29;;;;;;;5.65;1.83;;;11.90;84.80;;;;;;5037374;28;20008;-76
2021/05/25 00:45:55;;;;;;;5.05;1.50;;;11.90;85.30;;;;;;5067844;28;20021;-75
2021/05/25 00:48:21;;;;;;;6.35;1.50;;;11.90;85.40;;;;;;5052420;28;20019;-75
2021/05/25 00:50:47;;;;;;;5.68;1.70;;;11.80;85.40;;;;;;5066310;28;20071;-76
2021/05/25 00:53:12;;;;;;;6.43;1.55;;;11.80;85.70;;;;;;5068015;28;20049;-76
2021/05/25 00:55:39;;;;;;;4.07;1.70;;;11.80;85.80;;;;;;5047591;28;20026;-76
2021/05/25 00:58:05;;;;;;;4.90;1.85;;;11.80;86.10;;;;;;5025440;28;20329;-76
2021/05/25 01:00:36;;;;;;;6.43;1.75;;;11.70;86.10;;;;;;5008291;28;20014;-76
2021/05/25 01:03:02;;;;;;;3.53;1.50;;;11.80;86.40;;;;;;5024699;28;20012;-76
2021/05/25 01:05:27;;;;;;;6.22;1.70;;;11.80;86.20;;;;;;5042522;28;20009;-76
2021/05/25 01:07:53;;;;;;;4.75;1.60;;;11.80;86.50;;;;;;5027903;28;20005;-76
2021/05/25 01:10:39;;;;;;;4.82;1.67;;;11.70;86.90;;;;;;5050293;28;20009;-76
2021/05/25 01:13:13;;;;;;;4.05;1.60;;;11.70;86.70;;;;;;5068935;28;20018;-76
2021/05/25 01:15:39;;;;;;;6.00;1.58;;;11.80;86.90;;;;;;5040748;28;20018;-76
2021/05/25 01:18:06;;;;;;;4.97;2.13;;;11.80;86.60;;;;;;5036154;28;20097;-76
2021/05/25 01:20:33;;;;;;;4.80;1.42;;;11.80;86.70;;;;;;5029574;28;20207;-76
2021/05/25 01:22:58;;;;;;;6.18;1.83;;;11.80;86.80;;;;;;5047784;28;20013;-76
2021/05/25 01:25:25;;;;;;;5.03;1.40;;;11.80;87.10;;;;;;5027900;28;20041;-76
2021/05/25 01:27:56;;;;;;;4.15;1.65;;;11.80;87.20;;;;;;5026551;28;20006;-76
2021/05/25 01:30:23;;;;;;;7.32;1.65;;;11.80;87.20;;;;;;5027460;28;20033;-76
2021/05/25 01:32:48;;;;;;;3.55;1.60;;;11.70;87.60;;;;;;5027132;28;20083;-76
2021/05/25 01:35:14;;;;;;;4.68;1.90;;;11.60;87.70;;;;;;5027062;28;20017;-76
2021/05/25 01:37:40;;;;;;;3.75;1.50;;;11.70;88.20;;;;;;5026782;28;20223;-75
2021/05/25 01:40:06;;;;;;;4.68;1.55;;;11.60;88.10;;;;;;5026627;28;20192;-75
2021/05/25 01:42:36;;;;;;;7.97;1.60;;;11.60;88.20;;;;;;5059370;28;20009;-75
2021/05/25 01:45:02;;;;;;;6.90;1.60;;;11.70;88.30;;;;;;5042816;28;20014;-75
2021/05/25 01:47:28;;;;;;;5.40;2.17;;;11.60;88.30;;;;;;5059648;28;20016;-76
2021/05/25 01:50:10;;;;;;;3.28;1.90;;;11.60;88.60;;;;;;5059837;28;20207;-75
2021/05/25 01:52:36;;;;;;;5.30;2.10;;;11.50;88.70;;;;;;5057498;28;20056;-75
2021/05/25 01:55:02;;;;;;;4.97;1.70;;;11.50;88.90;;;;;;5038158;28;20089;-76
2021/05/25 01:57:28;;;;;;;6.20;1.67;;;11.50;88.80;;;;;;4990526;28;20025;-76
2021/05/25 01:59:54;;;;;;;5.30;1.40;;;11.60;89.10;;;;;;5006820;28;20299;-75
2021/05/25 02:02:19;;;;;;;4.35;1.65;;;11.60;88.50;;;;;;5006886;28;20033;-75
2021/05/25 02:04:45;;;;;;;3.55;1.60;;;11.60;88.80;;;;;;5007217;28;20077;-76
2021/05/25 02:07:10;;;;;;;5.53;1.50;;;11.60;88.80;;;;;;5014412;28;20024;-75
2021/05/25 02:09:36;;;;;;;3.85;1.50;;;11.60;88.90;;;;;;5062755;28;20023;-75
2021/05/25 02:12:02;;;;;;;4.63;1.70;;;11.50;89.20;;;;;;5059650;28;20036;-75
2021/05/25 02:14:27;;;;;;;6.22;1.60;;;11.50;89.30;;;;;;5042910;28;20053;-75
2021/05/25 02:16:53;;;;;;;3.38;1.40;;;11.50;89.30;;;;;;5043255;28;20041;-75
2021/05/25 02:19:18;;;;;;;7.10;2.13;;;11.50;89.40;;;;;;5060871;28;20010;-75
2021/05/25 02:21:44;;;;;;;7.60;2.00;;;11.50;89.50;;;;;;5062376;28;20075;-75
2021/05/25 02:24:10;;;;;;;2.28;1.35;;;11.50;89.40;;;;;;5044137;28;20369;-76
2021/05/25 02:26:35;;;;;;;3.67;1.65;;;11.50;89.50;;;;;;5040276;28;20014;-75
2021/05/25 02:29:01;;;;;;;5.30;1.80;;;11.50;89.40;;;;;;5008525;28;20069;-75
2021/05/25 02:31:27;;;;;;;4.35;1.63;;;11.50;89.50;;;;;;5026721;28;20006;-76
2021/05/25 02:33:52;;;;;;;5.85;1.63;;;11.50;89.40;;;;;;4996591;28;20017;-76
2021/05/25 02:36:18;;;;;;;4.18;1.92;;;11.50;89.40;;;;;;5027767;28;20045;-76
2021/05/25 02:38:43;;;;;;;4.28;1.80;;;11.50;89.60;;;;;;5008836;28;20033;-75
2021/05/25 02:41:09;;;;;;;5.53;1.80;;;11.60;89.50;;;;;;4990987;28;20102;-75
2021/05/25 02:43:35;;;;;;;5.07;1.90;;;11.60;89.30;;;;;;5008286;28;20299;-75
2021/05/25 02:46:00;;;;;;;5.32;1.83;;;11.60;89.20;;;;;;5023974;28;20009;-76
2021/05/25 02:48:26;;;;;;;3.80;1.90;;;11.60;89.10;;;;;;5022702;28;20035;-76
2021/05/25 02:50:52;;;;;;;5.57;2.25;;;11.60;89.30;;;;;;4991179;28;20214;-76
2021/05/25 02:53:17;;;;;;;3.78;1.58;;;11.70;89.10;;;;;;5019386;28;20211;-76
2021/05/25 02:55:43;;;;;;;3.30;1.75;;;11.70;89.00;;;;;;5042181;28;20346;-76
2021/05/25 02:58:09;;;;;;;4.43;1.75;;;11.70;90.00;;;;;;5042340;28;20021;-75
2021/05/25 03:00:39;;;;;;;5.53;1.92;;;11.80;89.20;;;;;;4998291;28;20013;-76
2021/05/25 03:03:06;;;;;;;3.58;1.60;;;11.70;88.90;;;;;;5038600;28;20021;-76
2021/05/25 03:05:32;;;;;;;5.20;1.70;;;11.70;89.00;;;;;;5039226;28;20090;-76
2021/05/25 03:07:58;;;;;;;4.25;1.73;;;11.80;88.80;;;;;;5024389;28;20017;-75
2021/05/25 03:10:29;;;;;;;5.30;1.73;;;11.90;88.70;;;;;;5024025;28;20010;-76
2021/05/25 03:12:54;;;;;;;4.07;1.80;;;11.90;88.50;;;;;;5023235;28;20018;-75
2021/05/25 03:15:23;;;;;;;3.28;1.60;;;12.00;88.40;;;;;;5022797;28;20028;-75
2021/05/25 03:17:49;;;;;;;4.10;1.77;;;12.00;87.90;;;;;;5038800;28;20040;-76
2021/05/25 03:20:15;;;;;;;5.25;1.67;;;12.10;87.90;;;;;;5041603;28;20010;-76
2021/05/25 03:22:40;;;;;;;4.05;1.48;;;12.10;87.60;;;;;;5042699;28;20148;-75
2021/05/25 03:25:07;;;;;;;2.90;1.30;;;12.20;87.60;;;;;;5060544;28;20014;-76
2021/05/25 03:27:32;;;;;;;4.90;1.65;;;12.10;87.60;;;;;;5059453;28;20009;-75
2021/05/25 03:29:58;;;;;;;5.68;1.60;;;12.20;87.60;;;;;;5042229;28;20414;-75
2021/05/25 03:32:24;;;;;;;5.82;1.92;;;12.20;87.30;;;;;;5058542;28;20020;-75
2021/05/25 03:34:49;;;;;;;4.18;1.90;;;12.30;87.50;;;;;;5058873;28;20014;-75
2021/05/25 03:37:15;;;;;;;6.07;1.75;;;12.30;87.30;;;;;;5058825;28;20128;-75
2021/05/25 03:39:40;;;;;;;6.10;1.98;;;12.30;87.30;;;;;;5058993;28;20033;-75
2021/05/25 03:42:06;;;;;;;4.82;1.45;;;12.40;87.40;;;;;;5048983;28;20009;-75
2021/05/25 03:44:32;;;;;;;4.20;2.10;;;12.40;87.30;;;;;;5021819;28;20059;-76
2021/05/25 03:46:57;;;;;;;3.10;1.90;;;12.40;87.40;;;;;;5037605;28;20341;-76
2021/05/25 03:49:23;;;;;;;4.10;2.03;;;12.40;87.10;;;;;;5047803;28;20018;-76
2021/05/25 03:51:49;;;;;;;6.35;1.90;;;12.40;87.30;;;;;;5011916;28;20017;-76
2021/05/25 03:54:19;;;;;;;3.95;1.88;;;12.50;86.90;;;;;;5026968;28;20025;-76
2021/05/25 03:56:55;;;;;;;5.88;2.28;;;12.50;86.80;;;;;;5024605;28;20029;-76
2021/05/25 03:59:20;;;;;;;4.75;1.95;;;12.50;86.80;;;;;;5029937;28;20093;-76
2021/05/25 04:01:46;;;;;;;4.38;2.15;;;12.60;86.70;;;;;;5027263;28;20270;-76
2021/05/25 04:04:12;;;;;;;6.90;2.25;;;12.60;86.70;;;;;;5034299;28;20009;-75
2021/05/25 04:06:39;;;;;;;5.68;1.63;;;12.60;87.00;;;;;;5031461;28;20123;-75
2021/05/25 04:09:05;;;;;;;4.05;1.90;;;12.60;87.00;;;;;;5064087;28;20022;-75
2021/05/25 04:11:31;;;;;;;5.47;2.10;;;12.70;86.70;;;;;;5063012;28;20014;-76
2021/05/25 04:13:57;;;;;;;6.25;1.75;;;12.70;86.50;;;;;;5061400;28;20009;-76
2021/05/25 04:16:22;;;;;;;5.18;2.03;;;12.80;86.30;;;;;;5028576;28;20021;-76
2021/05/25 04:18:48;;;;;;;4.15;1.85;;;12.90;86.30;;;;;;5029625;28;20223;-76
2021/05/25 04:21:14;;;;;;;5.00;2.22;;;13.00;86.00;;;;;;5045958;28;20009;-75
2021/05/25 04:23:39;;;;;;;7.70;2.30;;;13.00;85.60;;;;;;5037060;28;20116;-75
2021/05/25 04:26:05;;;;;;;3.63;1.63;;;13.00;85.70;;;;;;5025055;28;20065;-76
2021/05/25 04:28:31;;;;;;;3.75;1.90;;;13.00;85.70;;;;;;5040632;28;20021;-76
2021/05/25 04:30:56;;;;;;;3.55;1.92;;;12.90;86.00;;;;;;5028054;28;20047;-77
2021/05/25 04:33:22;;;;;;;3.95;1.83;;;12.90;86.20;;;;;;5044762;28;20005;-76
2021/05/25 04:35:48;;;;;;;7.00;2.08;;;12.90;86.00;;;;;;5033266;28;20030;-76
2021/05/25 04:38:14;;;;;;;7.35;1.80;;;12.90;86.30;;;;;;5024834;28;20081;-76
2021/05/25 04:40:41;;;;;;;4.13;1.45;;;12.90;86.40;;;;;;5008469;28;20073;-76
2021/05/25 04:43:07;;;;;;;3.70;1.70;;;12.90;86.40;;;;;;5010587;28;20013;-76
2021/05/25 04:45:32;;;;;;;2.47;1.30;;;12.90;86.40;;;;;;5013401;28;20009;-76
2021/05/25 04:47:58;;;;;;;4.20;1.60;;;12.90;86.50;;;;;;5028479;28;20196;-76
2021/05/25 04:50:24;;;;;;;4.40;1.40;;;13.00;86.40;;;;;;5048280;28;20069;-76
2021/05/25 04:52:50;;;;;;;4.97;1.92;;;12.90;86.40;;;;;;5034817;28;20010;-76
2021/05/25 04:55:17;;;;;;;3.47;1.50;;;12.90;86.50;;;;;;5056546;28;20033;-76
2021/05/25 04:57:43;;;;;;;6.00;1.80;;;12.90;86.40;;;;;;5024699;28;20026;-76
2021/05/25 05:00:10;;;;;;;5.13;1.88;;;13.00;86.50;;;;;;5026860;28;20005;-76
2021/05/25 05:02:36;;;;;;;4.43;1.90;;;13.00;86.20;;;;;;5008121;28;20010;-76
2021/05/25 05:05:02;;;;;;;3.47;1.60;;;13.00;86.40;;;;;;5024208;28;20036;-76
2021/05/25 05:07:28;;;;;;;5.75;1.60;;;13.10;86.20;;;;;;5015677;28;20033;-76
2021/05/25 05:09:53;;;;;;;5.45;1.67;;;13.10;86.10;;;;;;5024667;28;20024;-76
2021/05/25 05:12:19;;;;;;;3.85;1.42;;;13.10;86.10;;;;;;5040253;28;20037;-76
2021/05/25 05:14:44;;;;;;;4.15;1.63;;;13.10;86.00;;;;;;5025597;28;20037;-76
2021/05/25 05:17:10;;;;;;;4.88;1.63;;;13.20;85.70;;;;;;5041918;28;20021;-75
2021/05/25 05:19:36;;;;;;;7.43;1.80;;;13.20;85.40;;;;;;5042780;28;20133;-75
2021/05/25 05:22:01;;;;;;;4.03;1.67;;;13.30;85.20;;;;;;5040066;28;20010;-75
2021/05/25 05:24:27;;;;;;;3.72;1.83;;;13.30;84.70;;;;;;5013782;28;20029;-75
2021/05/25 05:26:52;;;;;;;4.30;1.80;;;13.30;84.80;;;;;;5030402;28;20009;-76
2021/05/25 05:29:18;;;;;;;2.67;1.70;;;13.40;84.40;;;;;;5054292;28;20115;-76
2021/05/25 05:31:45;;;;;;;11.77;2.10;;;13.50;84.10;;;;;;5051085;28;20028;-75
2021/05/25 05:34:11;;;;;;;5.63;2.00;;;13.60;83.70;;;;;;5035783;28;20018;-76
2021/05/25 05:36:37;;;;;;;4.38;1.75;;;13.60;83.80;;;;;;5043140;28;20017;-76
2021/05/25 05:39:03;;;;;;;3.60;1.75;;;13.60;83.70;;;;;;5041349;28;20012;-76
2021/05/25 05:41:29;;;;;;;6.47;1.75;;;13.70;83.80;;;;;;5050221;28;20083;-76
2021/05/25 05:43:54;;;;;;;2.45;1.48;;;13.70;83.50;;;;;;5029639;28;20013;-76
2021/05/25 05:46:20;;;;;;;4.03;1.70;;;13.80;83.20;;;;;;5040375;28;20009;-76
2021/05/25 05:48:45;;;;;;;4.85;1.90;;;13.90;83.10;;;;;;5046287;28;20311;-76
2021/05/25 05:51:11;;;;;;;7.63;2.00;;;14.00;82.90;;;;;;5035887;28;20088;-76
2021/05/25 05:53:37;;;;;;;5.53;1.80;;;14.10;82.70;;;;;;5052652;28;20409;-76
2021/05/25 05:56:03;;;;;;;3.08;1.40;;;14.30;82.40;;;;;;5049052;28;20064;-77
2021/05/25 05:58:29;;;;;;;5.18;1.30;;;14.40;82.20;;;;;;5045467;28;20017;-76
2021/05/25 06:00:54;;;;;;;4.65;1.70;;;14.60;81.60;;;;;;5030896;28;20014;-76
2021/05/25 06:03:20;;;;;;;2.72;1.35;;;14.70;80.60;;;;;;5032062;28;20005;-76
2021/05/25 06:05:46;;;;;;;4.03;1.80;;;14.90;80.10;;;;;;5039542;28;20028;-76
2021/05/25 06:08:13;;;;;;;5.72;1.77;;;14.90;79.50;;;;;;5029392;28;20017;-76
2021/05/25 06:10:40;;;;;;;5.47;1.70;;;14.80;80.70;;;;;;5030785;28;20071;-76
2021/05/25 06:13:06;;;;;;;3.42;1.60;;;14.80;80.00;;;;;;5028258;28;20032;-76
2021/05/25 06:15:36;;;;;;;8.38;1.90;;;14.80;80.20;;;;;;5028040;28;20053;-76
2021/05/25 06:18:01;;;;;;;8.13;1.95;;;14.70;80.40;;;;;;5011247;28;20885;-76
2021/05/25 06:20:27;;;;;;;3.47;1.70;;;14.80;80.10;;;;;;5029716;28;20010;-77
2021/05/25 06:22:54;;;;;;;6.07;1.73;;;14.80;79.70;;;;;;5017991;28;20611;-78
2021/05/25 06:25:19;;;;;;;4.20;1.90;;;14.90;79.50;;;;;;5018995;28;20021;-77
2021/05/25 06:27:46;;;;;;;6.07;1.63;;;14.90;79.50;;;;;;5007460;28;20025;-76
2021/05/25 06:30:12;;;;;;;3.05;1.65;;;14.90;80.70;;;;;;5007425;28;20076;-76
2021/05/25 06:32:38;;;;;;;3.38;1.40;;;14.90;79.70;;;;;;5002771;28;20021;-76
2021/05/25 06:35:05;;;;;;;4.55;2.10;;;14.90;80.20;;;;;;4962428;28;20357;-77
2021/05/25 06:37:30;;;;;;;5.30;1.60;;;14.90;80.10;;;;;;4955989;28;20139;-77
2021/05/25 06:39:56;;;;;;;4.45;2.00;;;14.80;80.30;;;;;;4985554;28;20021;-77
2021/05/25 06:42:22;;;;;;;3.03;1.33;;;14.70;80.80;;;;;;4973830;28;20073;-77
2021/05/25 06:44:47;;;;;;;5.45;1.67;;;14.80;81.00;;;;;;4980098;28;20089;-78
2021/05/25 06:47:13;;;;;;;5.38;1.80;;;14.80;81.00;;;;;;4946492;28;20229;-75
2021/05/25 06:49:39;;;;;;;2.85;1.70;;;14.80;80.50;;;;;;4960827;28;20013;-76
2021/05/25 06:52:06;;;;;;;5.93;1.60;;;14.90;80.50;;;;;;4947938;28;20030;-76
2021/05/25 06:54:32;;;;;;;4.50;1.80;;;14.80;81.00;;;;;;4957542;28;20048;-77
2021/05/25 06:56:58;;;;;;;5.82;1.90;;;14.70;80.80;;;;;;4973776;28;20500;-77
2021/05/25 06:59:24;;;;;;;5.43;2.20;;;14.70;81.40;;;;;;4985010;28;20032;-75
2021/05/25 07:01:50;;;;;;;7.22;2.10;;;14.70;81.50;;;;;;4964741;28;20125;-75
2021/05/25 07:04:15;;;;;;;5.78;1.90;;;14.70;81.40;;;;;;4908375;28;20321;-77
2021/05/25 07:06:41;;;;;;;5.60;2.00;;;14.60;81.80;;;;;;4960948;28;20060;-76
2021/05/25 07:09:07;;;;;;;4.07;1.95;;;14.60;82.00;;;;;;4937315;28;20045;-77
2021/05/25 07:11:32;;;;;;;5.68;2.30;;;14.70;81.90;;;;;;4946636;28;20109;-81
2021/05/25 07:13:59;;;;;;;6.55;1.90;;;14.50;82.50;;;;;;4960973;28;20018;-78
2021/05/25 07:16:24;;;;;;;5.88;2.28;;;14.40;82.80;;;;;;4974675;28;20025;-78
2021/05/25 07:18:51;;;;;;;6.57;2.40;;;14.30;84.00;;;;;;4957952;28;20212;-79
2021/05/25 07:21:16;;;;;;;6.22;2.28;;;14.30;84.20;;;;;;4983975;28;20029;-80
2021/05/25 07:23:42;;;;;;;5.97;2.28;;;14.20;84.50;;;;;;4956004;28;20128;-78
2021/05/25 07:26:08;;;;;;;5.00;2.03;;;14.10;85.40;;;;;;4978182;28;20525;-81
2021/05/25 07:28:34;;;;;;;6.38;2.33;;;14.00;86.10;;;;;;4958056;28;20033;-78
2021/05/25 07:30:59;;;;;;;4.47;2.17;;;14.00;86.90;;;;;;4981423;28;20330;-80
2021/05/25 07:33:26;;;;;;;6.43;2.35;;;13.90;87.80;;;;;;4990816;28;20459;-80
2021/05/25 07:35:52;;;;;;;3.75;1.90;;;13.90;87.90;;;;;;4983481;28;20343;-78
2021/05/25 07:38:18;;;;;;;5.38;2.10;;;13.80;89.30;;;;;;4940043;28;20329;-81
2021/05/25 07:40:44;;;;;;;6.05;2.20;;;13.80;89.50;;;;;;4967743;28;20377;-78
2021/05/25 07:43:09;;;;;;;9.02;2.42;;;13.80;90.10;;;;;;4947164;28;20200;-76
2021/05/25 07:45:36;;;;;;;5.90;2.30;;;13.70;90.50;;;;;;4962670;28;21050;-75
2021/05/25 07:48:02;;;;;;;4.65;2.20;;;13.70;90.90;;;;;;4960855;28;20025;-75
2021/05/25 07:50:27;;;;;;;5.18;1.92;;;13.70;91.10;;;;;;4957878;28;20405;-76
2021/05/25 07:52:55;;;;;;;4.72;1.80;;;13.80;91.50;;;;;;5005648;28;20132;-76
2021/05/25 07:55:23;;;;;;;4.20;1.90;;;14.00;91.20;;;;;;4986488;28;20028;-75
2021/05/25 07:57:49;;;;;;;3.72;1.75;;;14.20;91.20;;;;;;4961970;28;20034;-80
2021/05/25 08:00:15;;;;;;;3.10;1.60;;;14.20;90.50;;;;;;4965696;28;20037;-79
2021/05/25 08:02:41;;;;;;;2.88;1.52;;;14.20;90.60;;;;;;4932825;28;20051;-79
2021/05/25 08:05:07;;;;;;;3.30;1.63;;;14.30;90.40;;;;;;4974888;28;20316;-78
2021/05/25 08:07:33;;;;;;;2.28;1.00;;;14.40;90.00;;;;;;4939026;28;20286;-78
2021/05/25 08:09:59;;;;;;;1.75;1.00;;;14.40;90.30;;;;;;4959337;28;20640;-77
2021/05/25 08:12:25;;;;;;;2.70;1.20;;;14.60;89.80;;;;;;4938756;28;21919;-77
2021/05/25 08:14:52;;;;;;;3.00;1.35;;;14.70;88.40;;;;;;4968456;28;20819;-78
2021/05/25 08:17:21;;;;;;;3.45;1.10;;;14.60;88.40;;;;;;4942765;28;20087;-78
2021/05/25 08:19:49;;;;;;;2.53;1.10;;;14.60;88.30;;;;;;4966078;28;20041;-78
2021/05/25 08:22:15;;;;;;;3.40;1.33;;;14.60;88.40;;;;;;4985584;28;20018;-77
2021/05/25 08:24:41;;;;;;;2.30;1.20;;;14.60;88.10;;;;;;4964121;28;20028;-77
2021/05/25 08:27:07;;;;;;;3.88;1.00;;;14.50;88.10;;;;;;4991759;28;20033;-80
2021/05/25 08:29:32;;;;;;;1.70;1.00;;;14.50;88.20;;;;;;4970139;28;20302;-77
2021/05/25 08:31:58;;;;;;;1.77;0.98;;;14.60;88.40;;;;;;4967265;28;20424;-77
2021/05/25 08:34:24;;;;;;;1.83;0.93;;;14.80;89.20;;;;;;4950361;28;20245;-80
2021/05/25 08:36:51;;;;;;;1.23;0.90;;;14.80;87.70;;;;;;4978030;28;20049;-80
2021/05/25 08:39:17;;;;;;;3.55;0.80;;;14.90;87.00;;;;;;4966456;28;20017;-81
2021/05/25 08:41:42;;;;;;;1.27;0.90;;;14.80;87.30;;;;;;4949468;28;20021;-77
2021/05/25 08:44:08;;;;;;;1.60;0.80;;;14.90;86.90;;;;;;4939742;28;20028;-78
2021/05/25 08:46:34;;;;;;;2.08;0.90;;;15.00;86.40;;;;;;4982318;28;20211;-78
2021/05/25 08:49:00;;;;;;;2.17;1.02;;;15.10;85.80;;;;;;4938590;28;20306;-78
2021/05/25 08:51:26;;;;;;;3.08;0.90;;;15.10;84.80;;;;;;4977155;28;20343;-79
2021/05/25 08:53:52;;;;;;;1.52;0.80;;;15.10;85.00;;;;;;4973892;28;20022;-77
2021/05/25 08:56:18;;;;;;;3.17;0.80;;;15.00;84.80;;;;;;4986270;28;20541;-76
2021/05/25 08:58:44;;;;;;;1.48;0.70;;;15.20;83.80;;;;;;4987718;28;20221;-77
2021/05/25 09:01:09;;;;;;;2.50;0.80;;;15.30;84.10;;;;;;4963016;28;20614;-77
2021/05/25 09:03:56;;;;;;;0.80;0.70;;;15.30;83.70;;;;;;4970071;28;21063;-77
2021/05/25 09:06:44;;;;;;;2.15;1.20;;;15.40;84.20;;;;;;4928450;28;20013;-76
2021/05/25 09:09:14;;;;;;;2.95;1.10;;;15.40;83.70;;;;;;4959704;28;20123;-78
2021/05/25 09:11:58;;;;;;;2.83;1.10;;;15.30;83.40;;;;;;4979357;28;20014;-78
2021/05/25 09:14:24;;;;;;;2.65;1.05;;;15.20;83.70;;;;;;4976937;28;21608;-78
2021/05/25 09:16:49;;;;;;;1.92;1.23;;;15.10;84.30;;;;;;4976126;28;20039;-80
2021/05/25 09:19:15;;;;;;;2.58;1.20;;;15.20;84.30;;;;;;4993223;28;20032;-79
2021/05/25 09:21:41;;;;;;;2.50;1.35;;;15.10;83.70;;;;;;4981285;28;20018;-78
2021/05/25 09:24:07;;;;;;;2.28;1.30;;;15.10;83.70;;;;;;4992014;28;20021;-79
2021/05/25 09:26:42;;;;;;;2.38;1.23;;;15.10;84.60;;;;;;4997065;28;20065;-83
2021/05/25 09:29:08;;;;;;;1.88;1.17;;;15.00;85.60;;;;;;5007765;28;20509;-79
2021/05/25 09:31:48;;;;;;;4.35;1.27;;;15.00;85.50;;;;;;4989750;28;20026;-80
2021/05/25 09:34:21;;;;;;;2.95;1.40;;;15.00;86.50;;;;;;4995921;28;20237;-80
2021/05/25 09:37:00;;;;;;;2.03;1.20;;;15.00;86.70;;;;;;4990592;28;20093;-78
2021/05/25 09:39:26;;;;;;;2.05;1.20;;;15.10;86.60;;;;;;4982267;28;20033;-77
2021/05/25 09:41:56;;;;;;;1.40;1.10;;;15.00;87.00;;;;;;5008061;28;21310;-78
2021/05/25 09:44:22;;;;;;;2.08;1.25;;;15.00;87.60;;;;;;4973248;28;20279;-79
2021/05/25 09:46:50;;;;;;;2.50;1.40;;;15.00;88.60;;;;;;4972304;28;20103;-78
2021/05/25 09:49:16;;;;;;;1.30;0.90;;;15.10;89.00;;;;;;4951584;28;20018;-80
2021/05/25 09:51:42;;;;;;;1.60;0.90;;;15.20;89.30;;;;;;4959173;28;20028;-77
2021/05/25 09:54:37;;;;;;;2.20;1.20;;;15.20;89.10;;;;;;4940832;28;20344;-77
2021/05/25 09:57:04;;;;;;;1.90;1.00;;;15.10;88.30;;;;;;4913888;28;20058;-77
2021/05/25 09:59:34;;;;;;;5.10;1.58;;;15.10;89.30;;;;;;4859722;28;20297;-76
2021/05/25 10:02:20;;;;;;;2.05;1.23;;;15.10;89.20;;;;;;4878810;28;21573;-79
2021/05/25 10:04:58;;;;;;;2.63;1.38;;;15.00;89.80;;;;;;4895530;28;20374;-77
2021/05/25 10:07:24;;;;;;;2.45;1.00;;;14.90;89.80;;;;;;4910052;28;21053;-77
2021/05/25 10:09:50;;;;;;;2.00;1.30;;;14.90;90.10;;;;;;4905836;28;20588;-77
2021/05/25 10:12:16;;;;;;;3.47;1.10;;;14.90;90.10;;;;;;4885259;28;20228;-78
2021/05/25 10:14:42;;;;;;;4.63;2.17;;;15.00;89.80;;;;;;4896649;28;20113;-77
2021/05/25 10:17:08;;;;;;;5.95;2.10;;;14.90;90.10;;;;;;4907991;28;20207;-77
2021/05/25 10:19:33;;;;;;;6.53;2.08;;;14.80;90.40;;;;;;4888262;28;20049;-77
2021/05/25 10:21:59;;;;;;;4.22;1.85;;;15.00;90.40;;;;;;4885463;28;20150;-77
2021/05/25 10:24:25;;;;;;;3.45;1.77;;;15.00;89.90;;;;;;4905756;28;20030;-76
2021/05/25 10:26:51;;;;;;;2.58;1.40;;;14.80;88.50;;;;;;4887731;28;20676;-79
2021/05/25 10:29:16;;;;;;;3.42;1.20;;;14.60;89.90;;;;;;4881161;28;20979;-78
2021/05/25 10:31:48;;;;;;;2.95;1.05;;;14.60;89.40;;;;;;4896977;28;20070;-77
2021/05/25 10:34:19;;;;;;;3.60;1.20;;;14.60;89.30;;;;;;4910562;28;20566;-79
2021/05/25 10:37:05;;;;;;;1.27;0.70;;;14.60;89.90;;;;;;4943389;28;20516;-77
2021/05/25 10:39:33;;;;;;;3.60;1.92;;;14.60;90.10;;;;;;4933641;28;20505;-77
2021/05/25 10:42:18;;;;;;;4.30;2.10;;;14.50;90.00;;;;;;4933479;28;20505;-77
2021/05/25 10:44:48;;;;;;;3.88;1.83;;;14.30;90.50;;;;;;4938411;28;20589;-77
2021/05/25 10:47:33;;;;;;;3.15;1.63;;;14.20;90.80;;;;;;4948142;28;20919;-77
2021/05/25 10:52:38;;;;;;;2.83;1.40;;;14.10;92.00;;;;;;4941321;28;20658;-77
2021/05/25 10:55:04;;;;;;;1.98;1.10;;;14.10;92.60;;;;;;4942821;28;20029;-75
2021/05/25 10:57:46;;;;;;;2.08;1.10;;;14.20;92.90;;;;;;4943049;28;20029;-76
2021/05/25 11:00:15;;;;;;;2.30;1.40;;;14.20;92.50;;;;;;4933908;28;20682;-78
2021/05/25 11:02:47;;;;;;;3.83;1.92;;;14.30;92.70;;;;;;4965248;28;20493;-76
2021/05/25 11:05:28;;;;;;;3.55;2.00;;;14.30;92.20;;;;;;4960809;28;20385;-76
2021/05/25 11:07:54;;;;;;;3.13;1.80;;;14.30;92.20;;;;;;4945080;28;20329;-75
2021/05/25 11:10:26;;;;;;;2.67;1.42;;;14.40;92.30;;;;;;4959515;28;20040;-76
2021/05/25 11:13:14;;;;;;;2.85;1.13;;;14.30;91.90;;;;;;4952026;28;20044;-77
2021/05/25 11:16:22;;;;;;;2.35;1.30;;;14.30;91.80;;;;;;4952954;28;20389;-76
2021/05/25 11:22:26;;;;;;;2.88;1.30;;;14.40;92.40;;;;;;4941991;28;21056;-77
2021/05/25 11:24:53;;;;;;;3.42;1.98;;;14.30;91.70;;;;;;4940255;28;20543;-77
2021/05/25 11:27:57;;;;;;;2.15;1.10;;;14.20;91.70;;;;;;4940453;28;20036;-77
2021/05/25 11:30:28;;;;;;;2.90;1.33;;;14.20;91.50;;;;;;4960726;28;21158;-77
2021/05/25 11:32:55;;;;;;;3.25;1.38;;;14.10;91.80;;;;;;4991921;28;21797;-77
2021/05/25 11:35:22;;;;;;;2.58;1.20;;;14.10;92.30;;;;;;4979174;28;20420;-77
2021/05/25 11:37:52;;;;;;;1.63;1.10;;;14.00;92.70;;;;;;4986489;28;20294;-79
2021/05/25 11:40:22;;;;;;;2.92;0.90;;;13.90;93.00;;;;;;5025151;28;20464;-79
2021/05/25 11:42:49;;;;;;;1.25;0.93;;;14.00;93.20;;;;;;4997118;28;20234;-77
2021/05/25 11:45:16;;;;;;;2.97;1.20;;;13.90;93.50;;;;;;5027264;28;20038;-77
2021/05/25 11:47:42;;;;;;;1.65;1.02;;;13.90;93.40;;;;;;5018484;28;21141;-77
2021/05/25 11:50:10;;;;;;;1.90;1.00;;;13.90;93.60;;;;;;5004489;28;20097;-77
2021/05/25 11:52:39;;;;;;;2.05;1.05;;;13.90;93.40;;;;;;5026289;28;20621;-78
2021/05/25 11:55:12;;;;;;;4.05;1.20;;;13.90;93.60;;;;;;5033477;28;20115;-80
2021/05/25 11:57:39;;;;;;;5.30;2.17;;;13.90;93.70;;;;;;5006113;28;20134;-77
2021/05/25 12:00:15;;;;;;;5.32;1.90;;;14.00;94.20;;;;;;5020675;28;20028;-80
2021/05/25 12:02:49;;;;;;;2.90;1.40;;;14.00;94.10;;;;;;5030322;28;20306;-79
2021/05/25 12:05:22;;;;;;;2.38;1.23;;;14.10;94.60;;;;;;5043576;28;20028;-77
2021/05/25 12:07:53;;;;;;;2.88;1.60;;;14.10;94.00;;;;;;5048750;28;20749;-78
2021/05/25 12:10:20;;;;;;;2.37;1.03;;;14.20;93.70;;;;;;5036652;28;20029;-78
2021/05/25 12:12:46;;;;;;;3.30;1.38;;;14.20;93.50;;;;;;5046152;28;20031;-78
2021/05/25 12:15:22;;;;;;;2.38;1.30;;;14.20;93.10;;;;;;5035283;28;20013;-78
2021/05/25 12:17:50;;;;;;;3.42;1.42;;;14.20;93.10;;;;;;4990707;28;20040;-79
2021/05/25 12:20:19;;;;;;;2.85;1.35;;;14.10;93.40;;;;;;5041285;28;20016;-78
2021/05/25 12:22:46;;;;;;;4.20;1.90;;;14.00;93.40;;;;;;5054588;28;20024;-79
2021/05/25 12:25:19;;;;;;;9.57;1.80;;;14.00;93.50;;;;;;5025628;28;20043;-83
2021/05/25 12:27:46;;;;;;;2.65;1.25;;;13.90;93.40;;;;;;5072947;28;20418;-78
2021/05/25 12:30:15;;;;;;;3.05;1.65;;;14.00;93.60;;;;;;5058160;28;20048;-82
2021/05/25 12:32:41;;;;;;;2.47;1.20;;;14.00;93.40;;;;;;5077806;28;20542;-80
2021/05/25 12:35:07;;;;;;;4.10;1.77;;;14.20;93.70;;;;;;5045434;28;20034;-81
2021/05/25 12:37:33;;;;;;;5.05;2.38;;;14.30;93.80;;;;;;5031038;28;20036;-79
2021/05/25 12:40:17;;;;;;;11.80;4.82;;;14.30;93.00;;;;;;5020371;28;20028;-78
2021/05/25 12:42:42;;;;;;;5.90;2.88;;;14.40;93.10;;;;;;5028235;28;20315;-83
2021/05/25 12:45:12;;;;;;;5.78;2.60;;;14.30;92.80;;;;;;5011669;28;20047;-81
2021/05/25 12:48:06;;;;;;;5.15;2.72;;;14.40;92.70;;;;;;5079028;28;20028;-82
2021/05/25 12:50:34;;;;;;;3.90;1.80;;;14.40;93.30;;;;;;5059111;28;20035;-79
2021/05/25 12:53:10;;;;;;;4.00;1.95;;;14.50;93.40;;;;;;5055241;28;20013;-81
2021/05/25 12:55:56;;;;;;;2.10;1.50;;;14.40;93.00;;;;;;5049966;28;20043;-83
2021/05/25 12:58:44;;;;;;;2.28;1.42;;;14.50;93.40;;;;;;5089736;28;20042;-80